Terminal Aerodrome Forecast
Issued by NWS

Home | Current Version | Previous Version | Text Only | Print | Product List | Glossary On
Versions: 1 2 3 4 5 6 7 8 9 10 11 12 13 14 15 16 17
000
FTUS43 KGRB 260520
TAFMTW
TAF
KMTW 260520Z 2606/2706 28005KT P6SM SCT200
     FM261500 25007KT P6SM SCT035
     FM262000 18007KT P6SM SCT250
     FM270200 21003KT P6SM SCT100 BKN200=

USA.gov is the U.S. government's official web portal to all federal, state and local government web resources and services.